Terminal Aerodrome Forecast
Issued by NWS Wilmington, OH

Current Version | Previous Version | Graphics & Text | Print | Product List | Glossary On
Versions: 1 2 3 4 5 6 7 8 9 10 11 12 13 14 15 16 17 18 19
000
FTUS41 KILN 302300 RRA
TAFDAY
TAF
KDAY 302342Z 0100/0124 01005KT P6SM SCT250
     FM010400 02003KT 3SM BR BKN012
      TEMPO 0108/0112 3/4SM BR OVC008
     FM011400 06003KT P6SM BKN012
     FM011700 35005KT P6SM SKC=

USA.gov is the U.S. government's official web portal to all federal, state and local government web resources and services.